Time;durP1;ratioP1;P1;durP2;ratioP2;P2;SDS_P1;SDS_P2;PMS_P1;PMS_P2;Temp;Humidity;BMP_temperature;BMP_pressure;BME280_temperature;BME280_humidity;BME280_pressure;Samples;Min_cycle;Max_cycle;Signal;HPM_P1;HPM_P2
2021/10/02 00:41:07;;;;;;;;;;;15.90;99.90;;;;;;5069891;28;19915;-77
2021/10/02 00:46:19;;;;;;;;;;;15.90;99.90;;;;;;5075555;28;19919;-77
2021/10/02 00:48:45;;;;;;;;;;;15.90;99.90;;;;;;5079474;28;19904;-77
2021/10/02 00:51:11;;;;;;;;;;;15.90;99.90;;;;;;5072792;28;19968;-76
2021/10/02 00:53:36;;;;;;;;;;;16.00;99.90;;;;;;5070207;28;20347;-77
2021/10/02 00:56:02;;;;;;;;;;;15.90;99.90;;;;;;5069466;28;19909;-77
2021/10/02 00:58:30;;;;;;;;;;;15.90;99.90;;;;;;5069587;28;19911;-77
2021/10/02 01:00:56;;;;;;;;;;;15.90;99.90;;;;;;5069754;28;19908;-77
2021/10/02 01:03:55;;;;;;;;;;;15.80;99.90;;;;;;5073907;28;19981;-77
2021/10/02 01:06:21;;;;;;;;;;;15.80;99.90;;;;;;5032477;28;19918;-77
2021/10/02 01:09:06;;;;;;;;;;;15.70;99.90;;;;;;5075740;28;19909;-76
2021/10/02 01:11:34;;;;;;;;;;;15.70;99.90;;;;;;5068482;28;19924;-76
2021/10/02 01:14:02;;;;;;;;;;;15.80;99.90;;;;;;5072462;28;19970;-77
2021/10/02 01:16:37;;;;;;;;;;;15.80;99.90;;;;;;5070802;28;19912;-76
2021/10/02 01:19:06;;;;;;;;;;;15.80;99.90;;;;;;5078528;28;19908;-76
2021/10/02 01:21:50;;;;;;;;;;;15.80;99.90;;;;;;5072621;28;19922;-77
2021/10/02 01:24:28;;;;;;;;;;;15.70;99.90;;;;;;5110259;27;19931;-78
2021/10/02 01:26:57;;;;;;;;;;;15.80;99.90;;;;;;5096886;28;19920;-77
2021/10/02 01:29:23;;;;;;;;;;;15.70;99.90;;;;;;5095606;28;19912;-78
2021/10/02 01:32:14;;;;;;;;;;;15.60;99.90;;;;;;5095932;28;19920;-77
2021/10/02 01:37:35;;;;;;;;;;;15.60;99.90;;;;;;5084796;28;19927;-78
2021/10/02 01:48:18;;;;;;;;;;;15.50;99.90;;;;;;5095782;28;19957;-78
2021/10/02 01:50:44;;;;;;;;;;;15.40;99.90;;;;;;5090631;28;19942;-77
2021/10/02 01:53:11;;;;;;;;;;;15.40;99.90;;;;;;5094218;28;20163;-77
2021/10/02 01:55:37;;;;;;;;;;;15.40;99.90;;;;;;5092916;28;19912;-78
2021/10/02 01:58:14;;;;;;;;;;;15.40;99.90;;;;;;5092420;28;20426;-77
2021/10/02 02:00:45;;;;;;;;;;;15.30;99.90;;;;;;5089160;28;19912;-78
2021/10/02 02:03:13;;;;;;;;;;;15.30;99.90;;;;;;5091438;28;19916;-78
2021/10/02 02:05:39;;;;;;;;;;;15.30;99.90;;;;;;5095637;28;19912;-78
2021/10/02 02:08:08;;;;;;;;;;;15.30;99.90;;;;;;5096287;28;19959;-77
2021/10/02 02:10:33;;;;;;;;;;;15.30;99.90;;;;;;5092288;28;19908;-77
2021/10/02 02:13:00;;;;;;;;;;;15.30;99.90;;;;;;5095865;28;20310;-77
2021/10/02 02:15:29;;;;;;;;;;;15.20;99.90;;;;;;5091459;28;20330;-77
2021/10/02 02:17:57;;;;;;;;;;;15.30;99.90;;;;;;5092718;28;19916;-77
2021/10/02 02:20:29;;;;;;;;;;;15.30;99.90;;;;;;5092647;28;19908;-77
2021/10/02 02:22:54;;;;;;;;;;;15.30;99.90;;;;;;5092807;28;20015;-77
2021/10/02 02:25:20;;;;;;;;;;;15.40;99.90;;;;;;5091995;28;19912;-77
2021/10/02 02:27:46;;;;;;;;;;;15.30;99.90;;;;;;5093653;28;19920;-77
2021/10/02 02:30:12;;;;;;;;;;;15.20;99.90;;;;;;5092487;28;19970;-78
2021/10/02 02:32:39;;;;;;;;;;;15.20;99.90;;;;;;5090711;28;20328;-77
2021/10/02 02:35:05;;;;;;;;;;;15.30;99.90;;;;;;5081816;28;19920;-78
2021/10/02 02:37:31;;;;;;;;;;;15.20;99.90;;;;;;5084420;28;20298;-77
2021/10/02 02:39:57;;;;;;;;;;;15.20;99.90;;;;;;5081986;28;19912;-78
2021/10/02 02:42:22;;;;;;;;;;;15.40;99.90;;;;;;5080774;28;19945;-77
2021/10/02 02:44:50;;;;;;;;;;;15.30;99.90;;;;;;5076343;28;19959;-77
2021/10/02 02:47:20;;;;;;;;;;;15.30;99.90;;;;;;5075648;28;20308;-77
2021/10/02 02:49:52;;;;;;;;;;;15.20;99.90;;;;;;5091972;28;19912;-77
2021/10/02 02:52:20;;;;;;;;;;;15.20;99.90;;;;;;5076760;28;19915;-78
2021/10/02 02:54:53;;;;;;;;;;;15.20;99.90;;;;;;5075882;28;19934;-77
2021/10/02 02:57:21;;;;;;;;;;;15.30;99.90;;;;;;5078687;28;19917;-77
2021/10/02 02:59:53;;;;;;;;;;;15.30;99.90;;;;;;5089882;28;19912;-78
2021/10/02 03:02:20;;;;;;;;;;;15.30;99.90;;;;;;5077149;28;19917;-78
2021/10/02 03:04:47;;;;;;;;;;;15.20;99.90;;;;;;5078549;28;19912;-78
2021/10/02 03:07:15;;;;;;;;;;;15.20;99.90;;;;;;5078454;28;19966;-78
2021/10/02 03:09:44;;;;;;;;;;;15.10;99.90;;;;;;5077600;28;19912;-77
2021/10/02 03:12:11;;;;;;;;;;;15.10;99.90;;;;;;5076037;28;20330;-77
2021/10/02 03:14:37;;;;;;;;;;;15.00;99.90;;;;;;5074294;28;19912;-77
2021/10/02 03:17:04;;;;;;;;;;;15.00;99.90;;;;;;5075067;28;19955;-77
2021/10/02 03:19:31;;;;;;;;;;;15.00;99.90;;;;;;5076737;28;19919;-78
2021/10/02 03:21:56;;;;;;;;;;;15.00;99.90;;;;;;5076873;28;20287;-77
2021/10/02 03:24:24;;;;;;;;;;;15.10;99.90;;;;;;5077383;28;19999;-77
2021/10/02 03:26:50;;;;;;;;;;;15.00;99.90;;;;;;5076813;28;19936;-77
2021/10/02 03:29:16;;;;;;;;;;;15.00;99.90;;;;;;5076040;28;20449;-78
2021/10/02 03:31:42;;;;;;;;;;;15.00;99.90;;;;;;5077705;28;19963;-78
2021/10/02 03:34:08;;;;;;;;;;;15.00;99.90;;;;;;5076332;28;19912;-78
2021/10/02 03:36:34;;;;;;;;;;;15.00;99.90;;;;;;5075953;28;20373;-78
2021/10/02 03:39:00;;;;;;;;;;;15.00;99.90;;;;;;5076606;28;19915;-78
2021/10/02 03:41:26;;;;;;;;;;;14.90;99.90;;;;;;5080940;28;19920;-77
2021/10/02 03:43:51;;;;;;;;;;;14.90;99.90;;;;;;5075255;28;20059;-77
2021/10/02 03:46:17;;;;;;;;;;;14.90;99.90;;;;;;5074631;28;19913;-78
2021/10/02 03:48:43;;;;;;;;;;;15.00;99.90;;;;;;5074402;28;19913;-77
2021/10/02 03:51:08;;;;;;;;;;;15.00;99.90;;;;;;5081733;28;19912;-77
2021/10/02 03:53:35;;;;;;;;;;;15.00;99.90;;;;;;5076015;28;19940;-77
2021/10/02 03:56:01;;;;;;;;;;;15.10;99.90;;;;;;5074660;28;19948;-77
2021/10/02 03:58:28;;;;;;;;;;;15.10;99.90;;;;;;5082877;28;19912;-77
2021/10/02 04:00:54;;;;;;;;;;;15.00;99.90;;;;;;5072125;28;19921;-78
2021/10/02 04:03:20;;;;;;;;;;;15.00;99.90;;;;;;5071640;28;20011;-77
2021/10/02 04:05:45;;;;;;;;;;;15.00;99.90;;;;;;5072814;28;19920;-78
2021/10/02 04:08:11;;;;;;;;;;;15.00;99.90;;;;;;5075858;28;19966;-77
2021/10/02 04:10:37;;;;;;;;;;;14.90;99.90;;;;;;5078437;28;19974;-77
2021/10/02 04:13:03;;;;;;;;;;;14.90;99.90;;;;;;5073997;28;20386;-77
2021/10/02 04:15:30;;;;;;;;;;;14.90;99.90;;;;;;5075821;28;19915;-77
2021/10/02 04:17:56;;;;;;;;;;;14.80;99.90;;;;;;5071567;28;20430;-77
2021/10/02 04:20:22;;;;;;;;;;;14.80;99.90;;;;;;5076506;28;19909;-77
2021/10/02 04:22:47;;;;;;;;;;;14.80;99.90;;;;;;5079498;28;19916;-77
2021/10/02 04:25:13;;;;;;;;;;;14.80;99.90;;;;;;5067186;28;20427;-77
2021/10/02 04:27:39;;;;;;;;;;;14.80;99.90;;;;;;5074525;28;19922;-77
2021/10/02 04:30:05;;;;;;;;;;;14.70;99.90;;;;;;5070474;28;19978;-77
2021/10/02 04:32:31;;;;;;;;;;;14.80;99.90;;;;;;5075135;28;20266;-77
2021/10/02 04:34:56;;;;;;;;;;;14.80;99.90;;;;;;5074001;28;19917;-77
2021/10/02 04:37:22;;;;;;;;;;;14.80;99.90;;;;;;5068481;28;19920;-78
2021/10/02 04:39:48;;;;;;;;;;;14.70;99.90;;;;;;5075127;28;19923;-77
2021/10/02 04:42:14;;;;;;;;;;;14.80;99.90;;;;;;5074817;28;19990;-77
2021/10/02 04:44:39;;;;;;;;;;;14.80;99.90;;;;;;5077504;28;20011;-77
2021/10/02 04:47:05;;;;;;;;;;;14.80;99.90;;;;;;5076111;28;19916;-78
2021/10/02 04:49:31;;;;;;;;;;;14.80;99.90;;;;;;5074996;28;19980;-78
2021/10/02 04:51:57;;;;;;;;;;;14.90;99.90;;;;;;5088827;28;19909;-78
2021/10/02 04:54:22;;;;;;;;;;;14.80;99.90;;;;;;5073392;28;19912;-77
2021/10/02 04:56:48;;;;;;;;;;;14.90;99.90;;;;;;5073318;28;20331;-78
2021/10/02 04:59:14;;;;;;;;;;;14.90;99.90;;;;;;5076013;28;19908;-77
2021/10/02 05:01:39;;;;;;;;;;;14.90;99.90;;;;;;5076001;28;20305;-77
2021/10/02 05:04:05;;;;;;;;;;;14.90;99.90;;;;;;5077343;28;19927;-77
2021/10/02 05:06:31;;;;;;;;;;;14.90;99.90;;;;;;5073960;28;19912;-77
2021/10/02 05:08:59;;;;;;;;;;;15.00;99.90;;;;;;5074586;28;20289;-78
2021/10/02 05:11:26;;;;;;;;;;;14.90;99.90;;;;;;5080130;28;19921;-77
2021/10/02 05:13:52;;;;;;;;;;;14.90;99.90;;;;;;5081783;28;19920;-77
2021/10/02 05:16:17;;;;;;;;;;;14.90;99.90;;;;;;5078908;28;19974;-77
2021/10/02 05:18:43;;;;;;;;;;;14.90;99.90;;;;;;5075331;28;20012;-77
2021/10/02 05:21:09;;;;;;;;;;;15.00;99.90;;;;;;5075671;28;19931;-77
2021/10/02 05:23:35;;;;;;;;;;;15.00;99.90;;;;;;5074345;28;19916;-77
2021/10/02 05:26:00;;;;;;;;;;;15.00;99.90;;;;;;5078620;28;19942;-77
2021/10/02 05:28:26;;;;;;;;;;;15.10;99.90;;;;;;5078396;28;20416;-77
2021/10/02 05:30:52;;;;;;;;;;;15.10;99.90;;;;;;5075315;28;19917;-77
2021/10/02 05:33:18;;;;;;;;;;;15.10;99.90;;;;;;5075072;28;19912;-77
2021/10/02 05:35:45;;;;;;;;;;;15.00;99.90;;;;;;5072054;28;19912;-77
2021/10/02 05:38:11;;;;;;;;;;;15.10;99.90;;;;;;5076044;28;20007;-77
2021/10/02 05:40:37;;;;;;;;;;;15.10;99.90;;;;;;5073838;28;19934;-78
2021/10/02 05:43:02;;;;;;;;;;;15.10;99.90;;;;;;5080369;28;19917;-77
2021/10/02 05:45:29;;;;;;;;;;;15.10;99.90;;;;;;5084587;28;19913;-77
2021/10/02 05:47:55;;;;;;;;;;;15.10;99.90;;;;;;5073103;28;20019;-77
2021/10/02 05:50:20;;;;;;;;;;;15.10;99.90;;;;;;5075336;28;19912;-77
2021/10/02 05:52:46;;;;;;;;;;;15.10;99.90;;;;;;5072854;28;20366;-77
2021/10/02 05:55:12;;;;;;;;;;;15.10;99.90;;;;;;5075262;28;19912;-77
2021/10/02 05:57:38;;;;;;;;;;;15.20;99.90;;;;;;5074673;28;19932;-77
2021/10/02 06:00:04;;;;;;;;;;;15.20;99.90;;;;;;5080744;28;20305;-76
2021/10/02 06:02:30;;;;;;;;;;;15.30;99.90;;;;;;5076622;28;19920;-76
2021/10/02 06:04:56;;;;;;;;;;;15.40;99.90;;;;;;5078102;28;19980;-78
2021/10/02 06:07:21;;;;;;;;;;;15.40;99.90;;;;;;5088137;28;19913;-78
2021/10/02 06:09:51;;;;;;;;;;;15.40;99.90;;;;;;5075790;28;19909;-77
2021/10/02 06:12:17;;;;;;;;;;;15.50;99.90;;;;;;5079315;28;20012;-77
2021/10/02 06:14:43;;;;;;;;;;;15.50;99.90;;;;;;5085935;28;19928;-77
2021/10/02 06:17:09;;;;;;;;;;;15.50;99.90;;;;;;5078683;28;19919;-77
2021/10/02 06:19:34;;;;;;;;;;;15.60;99.90;;;;;;5087133;28;19919;-77
2021/10/02 06:22:00;;;;;;;;;;;15.70;99.90;;;;;;5086775;28;19958;-76
2021/10/02 06:24:26;;;;;;;;;;;15.70;99.90;;;;;;5088930;28;19915;-76
2021/10/02 06:26:51;;;;;;;;;;;15.80;99.90;;;;;;5084545;28;19912;-75
2021/10/02 06:29:17;;;;;;;;;;;15.80;99.90;;;;;;5079433;28;20058;-75
2021/10/02 06:31:43;;;;;;;;;;;15.90;99.90;;;;;;5081340;28;20373;-75
2021/10/02 06:34:08;;;;;;;;;;;16.00;99.90;;;;;;5075773;28;19923;-74
2021/10/02 06:36:35;;;;;;;;;;;16.00;99.90;;;;;;5078503;28;20012;-75
2021/10/02 06:39:02;;;;;;;;;;;16.20;99.90;;;;;;5078434;28;19948;-78
2021/10/02 06:41:28;;;;;;;;;;;16.20;99.90;;;;;;5075778;28;19982;-75
2021/10/02 06:43:53;;;;;;;;;;;16.30;99.90;;;;;;5072111;28;20351;-76
2021/10/02 06:46:19;;;;;;;;;;;16.40;99.90;;;;;;5074414;28;20015;-75
2021/10/02 06:48:45;;;;;;;;;;;16.50;99.90;;;;;;5075666;28;19916;-75
2021/10/02 06:51:10;;;;;;;;;;;16.60;99.90;;;;;;5076166;28;19905;-74
2021/10/02 06:53:36;;;;;;;;;;;16.70;99.90;;;;;;5077593;28;20336;-74
2021/10/02 06:56:03;;;;;;;;;;;16.70;99.90;;;;;;5082567;28;19908;-75
2021/10/02 06:58:28;;;;;;;;;;;16.70;99.90;;;;;;5078013;28;19912;-76
2021/10/02 07:00:54;;;;;;;;;;;16.90;99.90;;;;;;5083670;28;19966;-76
2021/10/02 07:03:20;;;;;;;;;;;16.80;99.90;;;;;;5080964;28;19916;-77
2021/10/02 07:05:45;;;;;;;;;;;16.90;99.90;;;;;;5077953;28;19912;-76
2021/10/02 07:08:11;;;;;;;;;;;17.00;99.90;;;;;;5075007;28;19919;-81
2021/10/02 07:10:37;;;;;;;;;;;17.10;99.90;;;;;;5075952;28;20284;-76
2021/10/02 07:13:02;;;;;;;;;;;17.20;99.90;;;;;;5075340;28;19912;-75
2021/10/02 07:15:28;;;;;;;;;;;17.30;99.90;;;;;;5080946;28;19912;-75
2021/10/02 07:17:54;;;;;;;;;;;17.40;99.90;;;;;;5074924;28;19987;-77
2021/10/02 07:20:22;;;;;;;;;;;17.50;99.90;;;;;;5077946;28;19919;-76
2021/10/02 07:22:47;;;;;;;;;;;17.60;99.90;;;;;;5072996;28;19923;-76
2021/10/02 07:25:14;;;;;;;;;;;17.60;99.90;;;;;;5074154;28;19909;-75
2021/10/02 07:27:40;;;;;;;;;;;17.70;99.90;;;;;;5074327;28;20388;-74
2021/10/02 07:30:07;;;;;;;;;;;17.80;99.90;;;;;;5073799;28;19970;-76
2021/10/02 07:32:33;;;;;;;;;;;17.90;99.90;;;;;;5077707;28;19966;-76
2021/10/02 07:34:59;;;;;;;;;;;18.10;99.90;;;;;;5073506;28;19920;-74
2021/10/02 07:37:25;;;;;;;;;;;18.20;99.90;;;;;;5080061;28;19913;-77
2021/10/02 07:39:51;;;;;;;;;;;18.40;99.90;;;;;;5076498;28;19912;-79
2021/10/02 07:42:18;;;;;;;;;;;18.40;99.90;;;;;;5076875;28;19908;-78
2021/10/02 07:44:48;;;;;;;;;;;18.40;99.90;;;;;;5076951;28;19908;-75
2021/10/02 07:47:15;;;;;;;;;;;18.40;99.90;;;;;;5078492;28;19913;-75
2021/10/02 07:49:41;;;;;;;;;;;18.40;99.90;;;;;;5074259;28;19912;-76
2021/10/02 07:52:06;;;;;;;;;;;18.40;99.90;;;;;;5073234;28;20038;-75
2021/10/02 07:54:32;;;;;;;;;;;18.50;99.90;;;;;;5075290;28;19909;-75
2021/10/02 07:56:58;;;;;;;;;;;18.60;99.90;;;;;;5073326;28;19999;-75
2021/10/02 07:59:24;;;;;;;;;;;18.70;99.90;;;;;;5074007;28;19918;-75
2021/10/02 08:01:50;;;;;;;;;;;18.70;99.90;;;;;;5080543;28;19912;-75
2021/10/02 08:04:16;;;;;;;;;;;18.70;99.90;;;;;;5072430;28;19916;-75
2021/10/02 08:06:41;;;;;;;;;;;18.70;99.90;;;;;;5077716;28;19998;-76
2021/10/02 08:09:07;;;;;;;;;;;18.70;99.90;;;;;;5077145;28;19912;-75
2021/10/02 08:11:33;;;;;;;;;;;18.80;99.90;;;;;;5074133;28;20392;-75
2021/10/02 08:13:59;;;;;;;;;;;18.80;99.90;;;;;;5073886;28;19958;-75
2021/10/02 08:16:29;;;;;;;;;;;18.90;99.90;;;;;;5073408;28;19991;-75
2021/10/02 08:18:56;;;;;;;;;;;19.00;99.90;;;;;;5074300;28;20412;-75
2021/10/02 08:21:21;;;;;;;;;;;19.10;99.90;;;;;;5073681;28;19920;-75
2021/10/02 08:23:47;;;;;;;;;;;19.20;99.90;;;;;;5073916;28;19920;-76
2021/10/02 08:26:16;;;;;;;;;;;19.40;99.90;;;;;;5075257;28;20361;-76
2021/10/02 08:29:02;;;;;;;;;;;19.40;99.90;;;;;;5079090;28;19935;-75
2021/10/02 08:31:28;;;;;;;;;;;19.60;99.90;;;;;;5072192;28;19908;-75
2021/10/02 08:33:53;;;;;;;;;;;19.50;99.90;;;;;;5073206;28;20564;-75
2021/10/02 08:36:19;;;;;;;;;;;19.60;99.90;;;;;;5071327;28;19916;-75
2021/10/02 08:38:45;;;;;;;;;;;19.70;99.90;;;;;;5075565;28;20107;-75
2021/10/02 08:41:14;;;;;;;;;;;19.90;99.90;;;;;;5080074;28;19958;-75
2021/10/02 08:43:40;;;;;;;;;;;20.00;99.90;;;;;;5078440;28;20011;-74
2021/10/02 08:46:07;;;;;;;;;;;20.00;99.90;;;;;;5073204;28;20416;-74
2021/10/02 08:48:33;;;;;;;;;;;20.10;99.90;;;;;;5072003;28;19913;-75
2021/10/02 08:51:02;;;;;;;;;;;20.30;99.90;;;;;;5070478;28;19915;-75
2021/10/02 08:53:29;;;;;;;;;;;20.30;99.90;;;;;;5082157;28;20331;-74
2021/10/02 08:55:55;;;;;;;;;;;20.40;99.90;;;;;;5070053;28;19913;-75
2021/10/02 08:58:21;;;;;;;;;;;20.30;99.90;;;;;;5071914;28;19908;-74
2021/10/02 09:00:47;;;;;;;;;;;20.40;99.90;;;;;;5072586;28;19916;-74
2021/10/02 09:03:13;;;;;;;;;;;20.40;99.90;;;;;;5072373;28;20365;-76
2021/10/02 09:05:38;;;;;;;;;;;20.50;99.90;;;;;;5062453;28;19956;-76
2021/10/02 09:08:05;;;;;;;;;;;20.60;99.90;;;;;;5073552;28;20353;-76
2021/10/02 09:10:32;;;;;;;;;;;20.80;99.90;;;;;;5073800;28;19954;-76
2021/10/02 09:12:58;;;;;;;;;;;20.90;99.90;;;;;;5072898;28;20358;-75
2021/10/02 09:15:24;;;;;;;;;;;21.00;99.90;;;;;;5071597;28;19919;-76
2021/10/02 09:17:50;;;;;;;;;;;21.10;99.90;;;;;;5071786;28;20329;-76
2021/10/02 09:20:16;;;;;;;;;;;21.10;99.90;;;;;;5072937;28;20011;-75
2021/10/02 09:23:00;;;;;;;;;;;21.20;99.90;;;;;;5073017;28;20293;-76
2021/10/02 09:25:27;;;;;;;;;;;21.30;99.90;;;;;;5072359;28;19919;-76
2021/10/02 09:28:02;;;;;;;;;;;21.40;99.90;;;;;;5073274;28;19913;-76
2021/10/02 09:30:27;;;;;;;;;;;21.50;99.90;;;;;;5072510;28;19908;-76
2021/10/02 09:33:01;;;;;;;;;;;21.40;99.90;;;;;;5073388;28;20432;-76
2021/10/02 09:35:27;;;;;;;;;;;21.60;99.90;;;;;;5071485;28;19917;-76
2021/10/02 09:37:53;;;;;;;;;;;21.60;99.90;;;;;;5074264;28;20263;-76
2021/10/02 09:40:21;;;;;;;;;;;21.60;99.90;;;;;;5069557;28;19920;-76
2021/10/02 09:42:48;;;;;;;;;;;21.70;99.90;;;;;;5069267;28;20013;-76
2021/10/02 09:45:15;;;;;;;;;;;21.70;99.90;;;;;;5073846;28;19909;-76
2021/10/02 09:47:42;;;;;;;;;;;21.50;99.90;;;;;;5075627;28;19978;-76
2021/10/02 09:50:09;;;;;;;;;;;21.40;99.90;;;;;;5077815;28;19947;-76
2021/10/02 09:52:38;;;;;;;;;;;21.50;99.90;;;;;;5078600;28;20355;-76
2021/10/02 09:55:24;;;;;;;;;;;21.50;99.90;;;;;;5074363;28;19917;-75
2021/10/02 09:57:51;;;;;;;;;;;21.50;99.90;;;;;;5074519;28;19916;-75
2021/10/02 10:00:18;;;;;;;;;;;21.40;99.90;;;;;;5076506;28;19944;-76
2021/10/02 10:02:44;;;;;;;;;;;21.50;99.90;;;;;;5075278;28;19958;-76
2021/10/02 10:05:11;;;;;;;;;;;21.70;99.90;;;;;;5071999;28;20285;-76
2021/10/02 10:07:36;;;;;;;;;;;21.60;99.90;;;;;;5077679;28;19991;-76
2021/10/02 10:10:12;;;;;;;;;;;21.50;99.90;;;;;;5076310;28;20346;-76
2021/10/02 10:12:39;;;;;;;;;;;21.40;99.90;;;;;;5065969;28;20370;-75
2021/10/02 10:15:05;;;;;;;;;;;21.40;99.90;;;;;;5056642;28;19963;-76
2021/10/02 10:17:32;;;;;;;;;;;21.40;99.90;;;;;;5055279;28;19913;-75
2021/10/02 10:20:09;;;;;;;;;;;21.40;99.90;;;;;;5056402;28;19935;-76
2021/10/02 10:22:35;;;;;;;;;;;21.40;99.90;;;;;;5070322;28;19927;-75
2021/10/02 10:25:03;;;;;;;;;;;21.40;99.90;;;;;;5076206;28;19919;-75
2021/10/02 10:27:35;;;;;;;;;;;21.40;99.90;;;;;;5077236;28;19995;-75
2021/10/02 10:30:15;;;;;;;;;;;21.50;99.90;;;;;;5062582;28;19913;-76
2021/10/02 10:32:54;;;;;;;;;;;21.40;99.90;;;;;;5056829;28;19909;-76
2021/10/02 10:35:20;;;;;;;;;;;21.40;99.90;;;;;;5072716;28;19916;-76
2021/10/02 10:37:46;;;;;;;;;;;21.50;99.90;;;;;;5076928;28;19912;-77
2021/10/02 10:40:11;;;;;;;;;;;21.50;99.90;;;;;;5076169;28;20571;-78
2021/10/02 10:42:37;;;;;;;;;;;21.30;99.90;;;;;;5094666;28;19923;-77
2021/10/02 10:45:03;;;;;;;;;;;21.20;99.90;;;;;;5075833;28;19908;-77
2021/10/02 10:47:31;;;;;;;;;;;21.30;99.90;;;;;;5058235;28;19909;-78
2021/10/02 10:49:56;;;;;;;;;;;21.30;99.90;;;;;;5065755;28;19913;-77
2021/10/02 10:52:22;;;;;;;;;;;21.10;99.90;;;;;;5075277;28;19982;-76
2021/10/02 10:54:51;;;;;;;;;;;21.00;99.90;;;;;;5071537;28;19973;-76
2021/10/02 10:57:49;;;;;;;;;;;21.00;99.90;;;;;;5078374;28;19919;-76
2021/10/02 11:00:38;;;;;;;;;;;20.90;99.90;;;;;;5055127;28;19992;-76
2021/10/02 11:03:04;;;;;;;;;;;20.80;99.90;;;;;;5073370;28;19917;-76
2021/10/02 11:05:43;;;;;;;;;;;20.70;99.90;;;;;;5071819;28;19916;-76
2021/10/02 11:08:10;;;;;;;;;;;20.70;99.90;;;;;;5077033;28;19913;-76
2021/10/02 11:10:39;;;;;;;;;;;20.50;99.90;;;;;;5072817;28;19916;-78
2021/10/02 11:13:04;;;;;;;;;;;20.50;99.90;;;;;;5071297;28;19913;-77
2021/10/02 11:15:30;;;;;;;;;;;20.60;99.90;;;;;;5075711;28;19912;-77
2021/10/02 11:17:56;;;;;;;;;;;20.50;99.90;;;;;;5080111;28;19970;-77
2021/10/02 11:20:30;;;;;;;;;;;20.40;99.90;;;;;;5080624;28;19912;-76
2021/10/02 11:23:25;;;;;;;;;;;20.50;99.90;;;;;;5077182;28;19927;-78
2021/10/02 11:26:11;;;;;;;;;;;20.60;99.90;;;;;;5038909;28;19920;-77
2021/10/02 11:28:36;;;;;;;;;;;20.40;99.90;;;;;;5068059;28;19956;-76
2021/10/02 11:31:10;;;;;;;;;;;20.40;99.90;;;;;;5073134;28;19912;-76
2021/10/02 11:33:52;;;;;;;;;;;20.50;99.90;;;;;;5074512;28;19920;-76
2021/10/02 11:36:35;;;;;;;;;;;20.60;99.90;;;;;;5069869;28;20379;-76
2021/10/02 11:39:11;;;;;;;;;;;20.70;99.90;;;;;;5072585;28;19916;-76
2021/10/02 11:41:48;;;;;;;;;;;20.70;99.90;;;;;;5076763;28;19908;-76
2021/10/02 11:44:32;;;;;;;;;;;20.70;99.90;;;;;;5075036;28;20358;-75
2021/10/02 11:47:16;;;;;;;;;;;20.60;99.90;;;;;;5073730;28;19923;-75
2021/10/02 11:49:42;;;;;;;;;;;20.70;99.90;;;;;;5075463;28;19919;-76
2021/10/02 11:52:11;;;;;;;;;;;20.60;99.90;;;;;;5076113;28;19912;-76
2021/10/02 11:54:37;;;;;;;;;;;20.60;99.90;;;;;;5075496;28;19935;-74
2021/10/02 11:57:14;;;;;;;;;;;20.70;99.90;;;;;;5074660;28;19912;-75
2021/10/02 11:59:44;;;;;;;;;;;20.50;99.90;;;;;;5075736;28;19999;-74
2021/10/02 12:02:10;;;;;;;;;;;20.60;99.90;;;;;;5080565;28;20549;-75
2021/10/02 12:04:36;;;;;;;;;;;20.50;99.90;;;;;;5080317;28;19968;-75
2021/10/02 12:07:02;;;;;;;;;;;20.50;99.90;;;;;;5072337;28;19908;-75
2021/10/02 12:09:29;;;;;;;;;;;20.70;99.90;;;;;;5077165;28;20075;-75
2021/10/02 12:11:55;;;;;;;;;;;20.70;99.90;;;;;;5074620;28;19920;-77
2021/10/02 12:14:23;;;;;;;;;;;20.70;99.90;;;;;;5077128;28;20281;-75
2021/10/02 12:16:54;;;;;;;;;;;20.60;99.90;;;;;;5072824;28;19950;-77
2021/10/02 12:19:21;;;;;;;;;;;20.60;99.90;;;;;;5073919;28;19917;-76
2021/10/02 12:21:50;;;;;;;;;;;20.50;99.90;;;;;;5073547;28;19909;-77
2021/10/02 12:24:24;;;;;;;;;;;20.50;99.90;;;;;;5080320;28;19977;-75
2021/10/02 12:26:49;;;;;;;;;;;20.60;99.90;;;;;;5073779;28;20039;-79
2021/10/02 12:29:17;;;;;;;;;;;20.60;99.90;;;;;;5079542;28;20405;-77
2021/10/02 12:31:45;;;;;;;;;;;20.70;99.90;;;;;;5067459;28;19913;-74
2021/10/02 12:34:12;;;;;;;;;;;20.70;99.90;;;;;;5072971;28;19916;-76
2021/10/02 12:36:41;;;;;;;;;;;20.70;99.90;;;;;;5083636;28;20209;-76
2021/10/02 12:39:07;;;;;;;;;;;20.70;99.90;;;;;;5078175;28;19920;-75
2021/10/02 12:41:40;;;;;;;;;;;20.90;99.90;;;;;;5073277;28;19969;-77
2021/10/02 12:44:05;;;;;;;;;;;21.00;99.90;;;;;;5067264;28;20021;-79
2021/10/02 12:46:31;;;;;;;;;;;21.10;99.90;;;;;;5068806;28;19916;-77
2021/10/02 12:48:57;;;;;;;;;;;21.00;99.90;;;;;;5064590;28;20007;-76
2021/10/02 12:51:23;;;;;;;;;;;21.00;99.90;;;;;;5073166;28;19959;-77
2021/10/02 12:53:48;;;;;;;;;;;20.90;99.90;;;;;;5070683;28;20003;-77
2021/10/02 12:56:17;;;;;;;;;;;20.90;99.90;;;;;;5072002;28;19975;-76
2021/10/02 12:58:43;;;;;;;;;;;20.90;99.90;;;;;;5066753;28;19920;-77
2021/10/02 13:01:09;;;;;;;;;;;20.90;99.90;;;;;;5071571;28;19912;-76
2021/10/02 13:03:38;;;;;;;;;;;20.90;99.90;;;;;;5066673;28;19931;-76
2021/10/02 13:06:04;;;;;;;;;;;21.00;99.90;;;;;;5066938;28;19919;-77
2021/10/02 13:08:30;;;;;;;;;;;21.00;99.90;;;;;;5087444;28;19912;-75
2021/10/02 13:10:55;;;;;;;;;;;21.00;99.90;;;;;;5071350;28;20046;-77
2021/10/02 13:13:21;;;;;;;;;;;20.90;99.90;;;;;;5071932;28;19913;-75
2021/10/02 13:15:49;;;;;;;;;;;20.90;99.90;;;;;;5065911;28;19966;-76
2021/10/02 13:18:14;;;;;;;;;;;21.00;99.90;;;;;;5073931;28;19916;-76
2021/10/02 13:20:40;;;;;;;;;;;21.00;99.90;;;;;;5076893;28;20350;-76
2021/10/02 13:23:24;;;;;;;;;;;21.00;99.90;;;;;;5076194;28;20637;-76
2021/10/02 13:25:54;;;;;;;;;;;21.10;99.90;;;;;;5071538;28;19912;-76
2021/10/02 13:28:28;;;;;;;;;;;21.00;99.90;;;;;;5069948;28;19909;-77
2021/10/02 13:30:56;;;;;;;;;;;20.90;99.90;;;;;;5076469;28;19927;-76
2021/10/02 13:33:22;;;;;;;;;;;20.90;99.90;;;;;;5069487;28;19916;-76
2021/10/02 13:35:53;;;;;;;;;;;21.00;99.90;;;;;;5069220;28;20365;-76
2021/10/02 13:38:29;;;;;;;;;;;21.10;99.90;;;;;;5070450;28;19921;-75
2021/10/02 13:40:55;;;;;;;;;;;21.20;99.90;;;;;;5070465;28;19913;-76
2021/10/02 13:43:20;;;;;;;;;;;21.10;99.90;;;;;;5077080;28;20377;-76
2021/10/02 13:45:48;;;;;;;;;;;21.10;99.90;;;;;;5075980;28;20385;-77
2021/10/02 13:48:15;;;;;;;;;;;21.10;99.90;;;;;;5070344;28;19909;-77
2021/10/02 13:50:42;;;;;;;;;;;21.00;99.90;;;;;;5070457;28;19912;-76
2021/10/02 13:53:08;;;;;;;;;;;20.90;99.90;;;;;;5070586;28;19981;-76
2021/10/02 13:55:34;;;;;;;;;;;20.90;99.90;;;;;;5068582;28;20389;-76
2021/10/02 13:58:00;;;;;;;;;;;21.00;99.90;;;;;;5076109;28;19975;-77
2021/10/02 14:00:26;;;;;;;;;;;21.10;99.90;;;;;;5073202;28;19917;-76
2021/10/02 14:02:52;;;;;;;;;;;21.10;99.90;;;;;;5076967;28;19924;-77
2021/10/02 14:05:19;;;;;;;;;;;21.00;99.90;;;;;;5071776;28;19912;-77
2021/10/02 14:07:44;;;;;;;;;;;21.10;99.90;;;;;;5073206;28;20401;-76
2021/10/02 14:10:10;;;;;;;;;;;21.10;99.90;;;;;;5073935;28;19913;-76
2021/10/02 14:12:36;;;;;;;;;;;21.00;99.90;;;;;;5074014;28;20339;-76
2021/10/02 14:15:02;;;;;;;;;;;21.00;99.90;;;;;;5076969;28;19948;-77
2021/10/02 14:17:28;;;;;;;;;;;21.10;99.90;;;;;;5076167;28;20423;-76
2021/10/02 14:19:53;;;;;;;;;;;21.00;99.90;;;;;;5070701;28;20007;-77
2021/10/02 14:22:19;;;;;;;;;;;21.00;99.90;;;;;;5070871;28;19973;-76
2021/10/02 14:24:45;;;;;;;;;;;21.00;99.90;;;;;;5071446;28;19959;-76
2021/10/02 14:27:10;;;;;;;;;;;21.00;99.90;;;;;;5070415;28;19913;-77
2021/10/02 14:29:37;;;;;;;;;;;21.00;99.90;;;;;;5070749;28;19919;-77
2021/10/02 14:32:03;;;;;;;;;;;20.90;99.90;;;;;;5083748;28;19913;-77
2021/10/02 14:34:29;;;;;;;;;;;20.90;99.90;;;;;;5089109;28;19999;-77
2021/10/02 14:36:54;;;;;;;;;;;21.00;99.90;;;;;;5076764;28;20443;-77
2021/10/02 14:39:20;;;;;;;;;;;20.90;99.90;;;;;;5076370;28;19947;-76
2021/10/02 14:41:47;;;;;;;;;;;20.90;99.90;;;;;;5080676;28;19921;-76
2021/10/02 14:44:13;;;;;;;;;;;20.90;99.90;;;;;;5076708;28;19916;-76
2021/10/02 14:46:39;;;;;;;;;;;21.00;99.90;;;;;;5074106;28;19999;-76
2021/10/02 14:49:04;;;;;;;;;;;21.00;99.90;;;;;;5075027;28;19916;-76
2021/10/02 14:51:30;;;;;;;;;;;21.00;99.90;;;;;;5079045;28;19912;-76
2021/10/02 14:53:56;;;;;;;;;;;21.00;99.90;;;;;;5074857;28;19918;-76
2021/10/02 14:56:22;;;;;;;;;;;20.90;99.90;;;;;;5073443;28;19952;-76
2021/10/02 14:58:49;;;;;;;;;;;20.90;99.90;;;;;;5073374;28;19927;-76
2021/10/02 15:01:15;;;;;;;;;;;21.00;99.90;;;;;;5074570;28;19977;-76
2021/10/02 15:03:41;;;;;;;;;;;21.00;99.90;;;;;;5075355;28;19917;-76
2021/10/02 15:06:07;;;;;;;;;;;21.10;99.90;;;;;;5075578;28;20293;-76
2021/10/02 15:08:33;;;;;;;;;;;21.10;99.90;;;;;;5076794;28;19963;-75
2021/10/02 15:11:01;;;;;;;;;;;21.10;99.90;;;;;;5073818;28;19995;-75
2021/10/02 15:13:27;;;;;;;;;;;21.10;99.90;;;;;;5077181;28;20397;-77